sensor_id;sensor_type;location;lat;lon;timestamp;P1;durP1;ratioP1;P2;durP2;ratioP2
25922;SDS011;13725;51.170;4.442;2024-02-21T00:02:02;27.65;;;8.07;;
25922;SDS011;13725;51.170;4.442;2024-02-21T00:04:28;26.52;;;7.22;;
25922;SDS011;13725;51.170;4.442;2024-02-21T00:06:54;28.08;;;7.05;;
25922;SDS011;13725;51.170;4.442;2024-02-21T00:09:19;20.33;;;7.45;;
25922;SDS011;13725;51.170;4.442;2024-02-21T00:11:45;23.67;;;6.82;;
25922;SDS011;13725;51.170;4.442;2024-02-21T00:14:11;26.88;;;9.10;;
25922;SDS011;13725;51.170;4.442;2024-02-21T00:16:36;25.20;;;7.05;;
25922;SDS011;13725;51.170;4.442;2024-02-21T00:19:02;26.52;;;7.47;;
25922;SDS011;13725;51.170;4.442;2024-02-21T00:21:28;33.28;;;6.53;;
25922;SDS011;13725;51.170;4.442;2024-02-21T00:23:54;25.10;;;6.57;;
25922;SDS011;13725;51.170;4.442;2024-02-21T00:26:20;26.80;;;6.55;;
25922;SDS011;13725;51.170;4.442;2024-02-21T00:28:46;19.70;;;6.70;;
25922;SDS011;13725;51.170;4.442;2024-02-21T00:31:12;27.50;;;6.70;;
25922;SDS011;13725;51.170;4.442;2024-02-21T00:33:38;18.73;;;5.80;;
25922;SDS011;13725;51.170;4.442;2024-02-21T00:36:03;23.55;;;6.53;;
25922;SDS011;13725;51.170;4.442;2024-02-21T00:38:29;27.50;;;6.38;;
25922;SDS011;13725;51.170;4.442;2024-02-21T00:40:55;20.92;;;6.30;;
25922;SDS011;13725;51.170;4.442;2024-02-21T00:43:21;21.35;;;6.70;;
25922;SDS011;13725;51.170;4.442;2024-02-21T00:45:49;23.30;;;6.55;;
25922;SDS011;13725;51.170;4.442;2024-02-21T00:48:15;27.27;;;6.18;;
25922;SDS011;13725;51.170;4.442;2024-02-21T00:50:40;24.63;;;6.93;;
25922;SDS011;13725;51.170;4.442;2024-02-21T00:53:06;22.02;;;6.53;;
25922;SDS011;13725;51.170;4.442;2024-02-21T00:55:32;16.85;;;6.00;;
25922;SDS011;13725;51.170;4.442;2024-02-21T00:57:58;19.90;;;6.50;;
25922;SDS011;13725;51.170;4.442;2024-02-21T01:00:23;21.67;;;6.85;;
25922;SDS011;13725;51.170;4.442;2024-02-21T01:02:49;24.83;;;8.18;;
25922;SDS011;13725;51.170;4.442;2024-02-21T01:05:14;25.92;;;6.80;;
25922;SDS011;13725;51.170;4.442;2024-02-21T01:07:40;23.48;;;6.95;;
25922;SDS011;13725;51.170;4.442;2024-02-21T01:10:06;16.08;;;6.43;;
25922;SDS011;13725;51.170;4.442;2024-02-21T01:12:32;19.75;;;6.88;;
25922;SDS011;13725;51.170;4.442;2024-02-21T01:14:58;22.42;;;7.28;;
25922;SDS011;13725;51.170;4.442;2024-02-21T01:17:23;24.00;;;8.18;;
25922;SDS011;13725;51.170;4.442;2024-02-21T01:19:49;23.88;;;7.72;;
25922;SDS011;13725;51.170;4.442;2024-02-21T01:22:15;21.52;;;6.75;;
25922;SDS011;13725;51.170;4.442;2024-02-21T01:24:41;22.27;;;6.70;;
25922;SDS011;13725;51.170;4.442;2024-02-21T01:27:07;21.10;;;8.30;;
25922;SDS011;13725;51.170;4.442;2024-02-21T01:29:33;21.02;;;6.93;;
25922;SDS011;13725;51.170;4.442;2024-02-21T01:31:58;21.92;;;6.75;;
25922;SDS011;13725;51.170;4.442;2024-02-21T01:34:24;16.77;;;6.85;;
25922;SDS011;13725;51.170;4.442;2024-02-21T01:36:50;22.65;;;8.07;;
25922;SDS011;13725;51.170;4.442;2024-02-21T01:39:15;23.08;;;7.97;;
25922;SDS011;13725;51.170;4.442;2024-02-21T01:41:41;22.83;;;7.40;;
25922;SDS011;13725;51.170;4.442;2024-02-21T01:44:07;26.98;;;8.40;;
25922;SDS011;13725;51.170;4.442;2024-02-21T01:46:32;21.00;;;7.20;;
25922;SDS011;13725;51.170;4.442;2024-02-21T01:48:59;25.92;;;7.55;;
25922;SDS011;13725;51.170;4.442;2024-02-21T01:51:25;24.27;;;7.88;;
25922;SDS011;13725;51.170;4.442;2024-02-21T01:53:52;21.23;;;7.07;;
25922;SDS011;13725;51.170;4.442;2024-02-21T01:56:20;25.48;;;7.63;;
25922;SDS011;13725;51.170;4.442;2024-02-21T01:58:46;20.60;;;7.90;;
25922;SDS011;13725;51.170;4.442;2024-02-21T02:01:14;28.60;;;7.93;;
25922;SDS011;13725;51.170;4.442;2024-02-21T02:03:39;25.55;;;7.45;;
25922;SDS011;13725;51.170;4.442;2024-02-21T02:06:05;23.00;;;8.23;;
25922;SDS011;13725;51.170;4.442;2024-02-21T02:08:34;19.80;;;8.18;;
25922;SDS011;13725;51.170;4.442;2024-02-21T02:11:00;30.98;;;8.02;;
25922;SDS011;13725;51.170;4.442;2024-02-21T02:13:26;27.73;;;8.07;;
25922;SDS011;13725;51.170;4.442;2024-02-21T02:15:52;35.92;;;8.60;;
25922;SDS011;13725;51.170;4.442;2024-02-21T02:18:19;32.33;;;8.35;;
25922;SDS011;13725;51.170;4.442;2024-02-21T02:20:45;33.90;;;8.70;;
25922;SDS011;13725;51.170;4.442;2024-02-21T02:23:22;25.20;;;9.10;;
25922;SDS011;13725;51.170;4.442;2024-02-21T02:25:52;27.48;;;8.82;;
25922;SDS011;13725;51.170;4.442;2024-02-21T02:28:18;26.88;;;8.73;;
25922;SDS011;13725;51.170;4.442;2024-02-21T02:30:44;28.20;;;8.13;;
25922;SDS011;13725;51.170;4.442;2024-02-21T02:33:10;28.70;;;8.70;;
25922;SDS011;13725;51.170;4.442;2024-02-21T02:35:36;36.78;;;9.43;;
25922;SDS011;13725;51.170;4.442;2024-02-21T02:38:05;35.53;;;9.20;;
25922;SDS011;13725;51.170;4.442;2024-02-21T02:40:31;22.50;;;8.85;;
25922;SDS011;13725;51.170;4.442;2024-02-21T02:42:58;26.08;;;9.38;;
25922;SDS011;13725;51.170;4.442;2024-02-21T02:45:24;25.13;;;9.27;;
25922;SDS011;13725;51.170;4.442;2024-02-21T02:47:53;25.92;;;8.68;;
25922;SDS011;13725;51.170;4.442;2024-02-21T02:50:19;28.48;;;9.77;;
25922;SDS011;13725;51.170;4.442;2024-02-21T02:52:45;34.33;;;10.25;;
25922;SDS011;13725;51.170;4.442;2024-02-21T02:55:11;32.95;;;11.05;;
25922;SDS011;13725;51.170;4.442;2024-02-21T02:57:37;30.50;;;9.93;;
25922;SDS011;13725;51.170;4.442;2024-02-21T03:00:03;30.85;;;9.10;;
25922;SDS011;13725;51.170;4.442;2024-02-21T03:02:31;27.98;;;9.27;;
25922;SDS011;13725;51.170;4.442;2024-02-21T03:04:57;31.42;;;9.65;;
25922;SDS011;13725;51.170;4.442;2024-02-21T03:07:24;28.60;;;9.65;;
25922;SDS011;13725;51.170;4.442;2024-02-21T03:09:50;29.60;;;10.00;;
25922;SDS011;13725;51.170;4.442;2024-02-21T03:12:16;31.58;;;9.75;;
25922;SDS011;13725;51.170;4.442;2024-02-21T03:14:49;26.35;;;9.63;;
25922;SDS011;13725;51.170;4.442;2024-02-21T03:17:15;23.80;;;8.18;;
25922;SDS011;13725;51.170;4.442;2024-02-21T03:19:41;34.45;;;9.90;;
25922;SDS011;13725;51.170;4.442;2024-02-21T03:22:07;29.27;;;9.60;;
25922;SDS011;13725;51.170;4.442;2024-02-21T03:24:33;25.35;;;9.23;;
25922;SDS011;13725;51.170;4.442;2024-02-21T03:26:58;25.83;;;8.43;;
25922;SDS011;13725;51.170;4.442;2024-02-21T03:29:25;29.25;;;9.05;;
25922;SDS011;13725;51.170;4.442;2024-02-21T03:31:50;27.67;;;9.43;;
25922;SDS011;13725;51.170;4.442;2024-02-21T03:34:16;24.65;;;8.20;;
25922;SDS011;13725;51.170;4.442;2024-02-21T03:36:42;26.35;;;8.45;;
25922;SDS011;13725;51.170;4.442;2024-02-21T03:39:07;28.05;;;8.52;;
25922;SDS011;13725;51.170;4.442;2024-02-21T03:41:34;23.15;;;9.13;;
25922;SDS011;13725;51.170;4.442;2024-02-21T03:44:00;26.92;;;7.82;;
25922;SDS011;13725;51.170;4.442;2024-02-21T03:46:27;24.27;;;8.63;;
25922;SDS011;13725;51.170;4.442;2024-02-21T03:48:52;25.20;;;8.35;;
25922;SDS011;13725;51.170;4.442;2024-02-21T03:51:18;25.08;;;8.68;;
25922;SDS011;13725;51.170;4.442;2024-02-21T03:53:44;30.15;;;9.18;;
25922;SDS011;13725;51.170;4.442;2024-02-21T03:56:09;25.08;;;8.30;;
25922;SDS011;13725;51.170;4.442;2024-02-21T03:58:35;23.33;;;7.50;;
25922;SDS011;13725;51.170;4.442;2024-02-21T04:01:01;29.25;;;8.85;;
25922;SDS011;13725;51.170;4.442;2024-02-21T04:03:27;25.30;;;8.13;;
25922;SDS011;13725;51.170;4.442;2024-02-21T04:05:53;29.50;;;8.73;;
25922;SDS011;13725;51.170;4.442;2024-02-21T04:08:19;24.65;;;7.88;;
25922;SDS011;13725;51.170;4.442;2024-02-21T04:10:44;25.23;;;7.75;;
25922;SDS011;13725;51.170;4.442;2024-02-21T04:13:10;18.75;;;8.35;;
25922;SDS011;13725;51.170;4.442;2024-02-21T04:15:36;18.25;;;8.13;;
25922;SDS011;13725;51.170;4.442;2024-02-21T04:18:02;23.00;;;8.07;;
25922;SDS011;13725;51.170;4.442;2024-02-21T04:20:30;21.40;;;8.18;;
25922;SDS011;13725;51.170;4.442;2024-02-21T04:22:57;20.85;;;8.10;;
25922;SDS011;13725;51.170;4.442;2024-02-21T04:25:23;26.35;;;8.05;;
25922;SDS011;13725;51.170;4.442;2024-02-21T04:27:49;24.35;;;7.72;;
25922;SDS011;13725;51.170;4.442;2024-02-21T04:30:14;22.25;;;7.55;;
25922;SDS011;13725;51.170;4.442;2024-02-21T04:32:40;23.45;;;8.60;;
25922;SDS011;13725;51.170;4.442;2024-02-21T04:35:07;21.73;;;7.97;;
25922;SDS011;13725;51.170;4.442;2024-02-21T04:37:33;25.17;;;7.47;;
25922;SDS011;13725;51.170;4.442;2024-02-21T04:39:59;19.40;;;7.82;;
25922;SDS011;13725;51.170;4.442;2024-02-21T04:42:24;27.50;;;8.48;;
25922;SDS011;13725;51.170;4.442;2024-02-21T04:44:50;21.95;;;8.10;;
25922;SDS011;13725;51.170;4.442;2024-02-21T04:47:16;22.38;;;7.80;;
25922;SDS011;13725;51.170;4.442;2024-02-21T04:49:41;23.20;;;7.80;;
25922;SDS011;13725;51.170;4.442;2024-02-21T04:52:07;24.85;;;9.18;;
25922;SDS011;13725;51.170;4.442;2024-02-21T04:54:33;27.85;;;9.30;;
25922;SDS011;13725;51.170;4.442;2024-02-21T04:57:00;27.08;;;8.73;;
25922;SDS011;13725;51.170;4.442;2024-02-21T04:59:26;20.23;;;8.82;;
25922;SDS011;13725;51.170;4.442;2024-02-21T05:01:52;31.42;;;9.60;;
25922;SDS011;13725;51.170;4.442;2024-02-21T05:04:18;26.42;;;10.50;;
25922;SDS011;13725;51.170;4.442;2024-02-21T05:06:43;25.25;;;10.02;;
25922;SDS011;13725;51.170;4.442;2024-02-21T05:09:09;24.85;;;10.05;;
25922;SDS011;13725;51.170;4.442;2024-02-21T05:11:35;27.40;;;9.40;;
25922;SDS011;13725;51.170;4.442;2024-02-21T05:14:02;32.15;;;9.95;;
25922;SDS011;13725;51.170;4.442;2024-02-21T05:16:29;27.80;;;9.82;;
25922;SDS011;13725;51.170;4.442;2024-02-21T05:18:56;27.90;;;9.75;;
25922;SDS011;13725;51.170;4.442;2024-02-21T05:21:22;29.33;;;10.40;;
25922;SDS011;13725;51.170;4.442;2024-02-21T05:23:49;25.02;;;8.88;;
25922;SDS011;13725;51.170;4.442;2024-02-21T05:26:25;32.67;;;9.85;;
25922;SDS011;13725;51.170;4.442;2024-02-21T05:28:51;29.10;;;10.27;;
25922;SDS011;13725;51.170;4.442;2024-02-21T05:31:17;28.67;;;10.13;;
25922;SDS011;13725;51.170;4.442;2024-02-21T05:33:43;28.42;;;9.90;;
25922;SDS011;13725;51.170;4.442;2024-02-21T05:36:10;30.95;;;10.50;;
25922;SDS011;13725;51.170;4.442;2024-02-21T05:38:36;33.83;;;10.00;;
25922;SDS011;13725;51.170;4.442;2024-02-21T05:41:02;35.40;;;11.00;;
25922;SDS011;13725;51.170;4.442;2024-02-21T05:43:28;31.98;;;11.25;;
25922;SDS011;13725;51.170;4.442;2024-02-21T05:45:54;22.58;;;9.82;;
25922;SDS011;13725;51.170;4.442;2024-02-21T05:48:20;29.75;;;10.95;;
25922;SDS011;13725;51.170;4.442;2024-02-21T05:50:49;33.38;;;10.25;;
25922;SDS011;13725;51.170;4.442;2024-02-21T05:53:15;31.42;;;11.25;;
25922;SDS011;13725;51.170;4.442;2024-02-21T05:55:41;32.00;;;11.65;;
25922;SDS011;13725;51.170;4.442;2024-02-21T05:58:07;28.42;;;11.48;;
25922;SDS011;13725;51.170;4.442;2024-02-21T06:00:35;33.15;;;10.25;;
25922;SDS011;13725;51.170;4.442;2024-02-21T06:03:01;30.15;;;11.55;;
25922;SDS011;13725;51.170;4.442;2024-02-21T06:05:27;38.25;;;10.55;;
25922;SDS011;13725;51.170;4.442;2024-02-21T06:07:53;31.98;;;12.40;;
25922;SDS011;13725;51.170;4.442;2024-02-21T06:10:19;32.85;;;9.90;;
25922;SDS011;13725;51.170;4.442;2024-02-21T06:12:44;34.83;;;11.27;;
25922;SDS011;13725;51.170;4.442;2024-02-21T06:15:10;36.78;;;10.55;;
25922;SDS011;13725;51.170;4.442;2024-02-21T06:17:36;28.95;;;10.85;;
25922;SDS011;13725;51.170;4.442;2024-02-21T06:20:01;24.20;;;9.20;;
25922;SDS011;13725;51.170;4.442;2024-02-21T06:22:27;24.98;;;9.77;;
25922;SDS011;13725;51.170;4.442;2024-02-21T06:24:55;31.17;;;10.13;;
25922;SDS011;13725;51.170;4.442;2024-02-21T06:27:20;29.10;;;10.00;;
25922;SDS011;13725;51.170;4.442;2024-02-21T06:29:46;25.85;;;10.23;;
25922;SDS011;13725;51.170;4.442;2024-02-21T06:32:12;32.40;;;10.35;;
25922;SDS011;13725;51.170;4.442;2024-02-21T06:34:38;28.52;;;9.38;;
25922;SDS011;13725;51.170;4.442;2024-02-21T06:37:03;25.45;;;9.65;;
25922;SDS011;13725;51.170;4.442;2024-02-21T06:39:29;24.98;;;9.88;;
25922;SDS011;13725;51.170;4.442;2024-02-21T06:41:55;22.60;;;8.88;;
25922;SDS011;13725;51.170;4.442;2024-02-21T06:44:21;25.52;;;9.35;;
25922;SDS011;13725;51.170;4.442;2024-02-21T06:46:47;26.67;;;9.30;;
25922;SDS011;13725;51.170;4.442;2024-02-21T06:49:13;23.63;;;9.27;;
25922;SDS011;13725;51.170;4.442;2024-02-21T06:51:44;26.05;;;9.55;;
25922;SDS011;13725;51.170;4.442;2024-02-21T06:54:10;25.95;;;9.52;;
25922;SDS011;13725;51.170;4.442;2024-02-21T06:56:36;25.35;;;8.75;;
25922;SDS011;13725;51.170;4.442;2024-02-21T06:59:02;23.15;;;9.23;;
25922;SDS011;13725;51.170;4.442;2024-02-21T07:01:29;21.58;;;9.10;;
25922;SDS011;13725;51.170;4.442;2024-02-21T07:03:55;25.65;;;8.65;;
25922;SDS011;13725;51.170;4.442;2024-02-21T07:06:21;20.55;;;9.27;;
25922;SDS011;13725;51.170;4.442;2024-02-21T07:08:47;19.92;;;9.07;;
25922;SDS011;13725;51.170;4.442;2024-02-21T07:11:13;19.38;;;8.77;;
25922;SDS011;13725;51.170;4.442;2024-02-21T07:13:38;21.10;;;8.70;;
25922;SDS011;13725;51.170;4.442;2024-02-21T07:16:04;29.27;;;8.80;;
25922;SDS011;13725;51.170;4.442;2024-02-21T07:18:30;26.02;;;8.95;;
25922;SDS011;13725;51.170;4.442;2024-02-21T07:20:56;21.33;;;8.88;;
25922;SDS011;13725;51.170;4.442;2024-02-21T07:23:22;24.90;;;9.30;;
25922;SDS011;13725;51.170;4.442;2024-02-21T07:25:47;17.13;;;8.93;;
25922;SDS011;13725;51.170;4.442;2024-02-21T07:28:13;24.70;;;9.23;;
25922;SDS011;13725;51.170;4.442;2024-02-21T07:30:40;14.25;;;8.32;;
25922;SDS011;13725;51.170;4.442;2024-02-21T07:33:06;17.70;;;8.48;;
25922;SDS011;13725;51.170;4.442;2024-02-21T07:35:32;23.42;;;9.07;;
25922;SDS011;13725;51.170;4.442;2024-02-21T07:37:58;24.25;;;9.43;;
25922;SDS011;13725;51.170;4.442;2024-02-21T07:40:24;31.42;;;9.73;;
25922;SDS011;13725;51.170;4.442;2024-02-21T07:42:49;19.88;;;8.65;;
25922;SDS011;13725;51.170;4.442;2024-02-21T07:45:15;16.48;;;8.75;;
25922;SDS011;13725;51.170;4.442;2024-02-21T07:47:41;22.50;;;9.50;;
25922;SDS011;13725;51.170;4.442;2024-02-21T07:50:07;21.75;;;10.05;;
25922;SDS011;13725;51.170;4.442;2024-02-21T07:52:33;18.70;;;8.68;;
25922;SDS011;13725;51.170;4.442;2024-02-21T07:54:59;24.08;;;9.07;;
25922;SDS011;13725;51.170;4.442;2024-02-21T07:57:25;17.13;;;8.50;;
25922;SDS011;13725;51.170;4.442;2024-02-21T07:59:50;17.73;;;8.02;;
25922;SDS011;13725;51.170;4.442;2024-02-21T08:02:16;20.15;;;8.38;;
25922;SDS011;13725;51.170;4.442;2024-02-21T08:04:42;20.33;;;8.43;;
25922;SDS011;13725;51.170;4.442;2024-02-21T08:07:08;21.65;;;9.10;;
25922;SDS011;13725;51.170;4.442;2024-02-21T08:09:34;21.30;;;8.85;;
25922;SDS011;13725;51.170;4.442;2024-02-21T08:12:01;22.08;;;8.88;;
25922;SDS011;13725;51.170;4.442;2024-02-21T08:14:27;16.77;;;8.48;;
25922;SDS011;13725;51.170;4.442;2024-02-21T08:16:53;19.55;;;9.02;;
25922;SDS011;13725;51.170;4.442;2024-02-21T08:19:20;18.05;;;9.30;;
25922;SDS011;13725;51.170;4.442;2024-02-21T08:21:46;15.40;;;9.27;;
25922;SDS011;13725;51.170;4.442;2024-02-21T08:24:12;17.90;;;8.93;;
25922;SDS011;13725;51.170;4.442;2024-02-21T08:26:43;21.55;;;9.82;;
25922;SDS011;13725;51.170;4.442;2024-02-21T08:29:12;20.63;;;9.95;;
25922;SDS011;13725;51.170;4.442;2024-02-21T08:31:37;21.25;;;10.40;;
25922;SDS011;13725;51.170;4.442;2024-02-21T08:34:03;21.45;;;9.88;;
25922;SDS011;13725;51.170;4.442;2024-02-21T08:36:29;25.67;;;11.77;;
25922;SDS011;13725;51.170;4.442;2024-02-21T08:39:00;21.98;;;11.65;;
25922;SDS011;13725;51.170;4.442;2024-02-21T08:41:29;23.35;;;12.07;;
25922;SDS011;13725;51.170;4.442;2024-02-21T08:43:56;23.48;;;12.48;;
25922;SDS011;13725;51.170;4.442;2024-02-21T08:46:22;31.98;;;13.02;;
25922;SDS011;13725;51.170;4.442;2024-02-21T08:48:52;25.65;;;12.30;;
25922;SDS011;13725;51.170;4.442;2024-02-21T08:51:18;26.85;;;12.30;;
25922;SDS011;13725;51.170;4.442;2024-02-21T08:53:48;23.15;;;11.80;;
25922;SDS011;13725;51.170;4.442;2024-02-21T08:56:14;29.77;;;11.43;;
25922;SDS011;13725;51.170;4.442;2024-02-21T08:58:40;22.92;;;10.98;;
25922;SDS011;13725;51.170;4.442;2024-02-21T09:01:06;27.70;;;10.65;;
25922;SDS011;13725;51.170;4.442;2024-02-21T09:03:38;22.50;;;10.75;;
25922;SDS011;13725;51.170;4.442;2024-02-21T09:06:05;22.65;;;10.00;;
25922;SDS011;13725;51.170;4.442;2024-02-21T09:08:31;18.42;;;9.57;;
25922;SDS011;13725;51.170;4.442;2024-02-21T09:10:57;22.58;;;9.85;;
25922;SDS011;13725;51.170;4.442;2024-02-21T09:13:23;20.23;;;9.77;;
25922;SDS011;13725;51.170;4.442;2024-02-21T09:15:49;21.35;;;8.73;;
25922;SDS011;13725;51.170;4.442;2024-02-21T09:18:15;20.77;;;9.15;;
25922;SDS011;13725;51.170;4.442;2024-02-21T09:20:42;14.77;;;8.18;;
25922;SDS011;13725;51.170;4.442;2024-02-21T09:23:08;18.08;;;7.47;;
25922;SDS011;13725;51.170;4.442;2024-02-21T09:25:34;17.17;;;6.82;;
25922;SDS011;13725;51.170;4.442;2024-02-21T09:28:00;18.23;;;8.63;;
25922;SDS011;13725;51.170;4.442;2024-02-21T09:30:27;11.05;;;5.78;;
25922;SDS011;13725;51.170;4.442;2024-02-21T09:32:53;12.85;;;5.30;;
25922;SDS011;13725;51.170;4.442;2024-02-21T09:35:18;10.75;;;5.53;;
25922;SDS011;13725;51.170;4.442;2024-02-21T09:37:44;15.35;;;5.47;;
25922;SDS011;13725;51.170;4.442;2024-02-21T09:40:10;11.77;;;5.70;;
25922;SDS011;13725;51.170;4.442;2024-02-21T09:45:14;12.25;;;5.75;;
25922;SDS011;13725;51.170;4.442;2024-02-21T09:47:50;10.35;;;5.70;;
25922;SDS011;13725;51.170;4.442;2024-02-21T09:50:34;12.15;;;4.97;;
25922;SDS011;13725;51.170;4.442;2024-02-21T09:53:03;18.98;;;5.13;;
25922;SDS011;13725;51.170;4.442;2024-02-21T09:55:31;12.15;;;4.82;;
25922;SDS011;13725;51.170;4.442;2024-02-21T09:58:00;8.98;;;4.07;;
25922;SDS011;13725;51.170;4.442;2024-02-21T10:00:27;15.52;;;4.05;;
25922;SDS011;13725;51.170;4.442;2024-02-21T10:02:53;15.98;;;5.05;;
25922;SDS011;13725;51.170;4.442;2024-02-21T10:05:19;9.85;;;3.95;;
25922;SDS011;13725;51.170;4.442;2024-02-21T10:07:45;10.13;;;4.28;;
25922;SDS011;13725;51.170;4.442;2024-02-21T10:10:12;11.43;;;4.25;;
25922;SDS011;13725;51.170;4.442;2024-02-21T10:12:47;7.25;;;3.97;;
25922;SDS011;13725;51.170;4.442;2024-02-21T10:15:22;12.80;;;4.07;;
25922;SDS011;13725;51.170;4.442;2024-02-21T10:17:49;14.13;;;3.75;;
25922;SDS011;13725;51.170;4.442;2024-02-21T10:20:23;10.85;;;3.30;;
25922;SDS011;13725;51.170;4.442;2024-02-21T10:22:49;8.90;;;3.50;;
25922;SDS011;13725;51.170;4.442;2024-02-21T10:25:25;8.73;;;3.65;;
25922;SDS011;13725;51.170;4.442;2024-02-21T10:27:50;8.63;;;3.60;;
25922;SDS011;13725;51.170;4.442;2024-02-21T10:30:17;8.13;;;3.50;;
25922;SDS011;13725;51.170;4.442;2024-02-21T10:32:50;15.30;;;4.32;;
25922;SDS011;13725;51.170;4.442;2024-02-21T10:35:26;12.70;;;4.43;;
25922;SDS011;13725;51.170;4.442;2024-02-21T10:37:56;6.70;;;3.83;;
25922;SDS011;13725;51.170;4.442;2024-02-21T10:40:23;11.60;;;3.80;;
25922;SDS011;13725;51.170;4.442;2024-02-21T10:42:58;12.37;;;3.70;;
25922;SDS011;13725;51.170;4.442;2024-02-21T10:45:34;8.75;;;3.38;;
25922;SDS011;13725;51.170;4.442;2024-02-21T10:48:14;12.88;;;3.53;;
25922;SDS011;13725;51.170;4.442;2024-02-21T10:53:35;10.65;;;3.72;;
25922;SDS011;13725;51.170;4.442;2024-02-21T10:58:40;12.30;;;4.00;;
25922;SDS011;13725;51.170;4.442;2024-02-21T11:01:08;12.57;;;4.68;;
25922;SDS011;13725;51.170;4.442;2024-02-21T11:03:34;8.27;;;4.32;;
25922;SDS011;13725;51.170;4.442;2024-02-21T11:06:01;11.35;;;4.20;;
25922;SDS011;13725;51.170;4.442;2024-02-21T11:08:27;9.55;;;3.92;;
25922;SDS011;13725;51.170;4.442;2024-02-21T11:10:56;13.35;;;4.97;;
25922;SDS011;13725;51.170;4.442;2024-02-21T11:13:37;9.77;;;4.68;;
25922;SDS011;13725;51.170;4.442;2024-02-21T11:16:08;16.98;;;5.07;;
25922;SDS011;13725;51.170;4.442;2024-02-21T11:18:38;10.15;;;5.03;;
25922;SDS011;13725;51.170;4.442;2024-02-21T11:21:04;11.18;;;4.95;;
25922;SDS011;13725;51.170;4.442;2024-02-21T11:23:30;8.60;;;4.95;;
25922;SDS011;13725;51.170;4.442;2024-02-21T11:26:09;15.57;;;5.32;;
25922;SDS011;13725;51.170;4.442;2024-02-21T11:28:35;13.55;;;6.20;;
25922;SDS011;13725;51.170;4.442;2024-02-21T11:33:39;12.70;;;5.57;;
25922;SDS011;13725;51.170;4.442;2024-02-21T11:36:08;12.40;;;5.50;;
25922;SDS011;13725;51.170;4.442;2024-02-21T11:38:35;14.57;;;6.35;;
25922;SDS011;13725;51.170;4.442;2024-02-21T11:41:00;16.58;;;4.63;;
25922;SDS011;13725;51.170;4.442;2024-02-21T11:43:27;19.02;;;5.32;;
25922;SDS011;13725;51.170;4.442;2024-02-21T11:46:02;10.82;;;4.32;;
25922;SDS011;13725;51.170;4.442;2024-02-21T11:48:29;14.70;;;5.82;;
25922;SDS011;13725;51.170;4.442;2024-02-21T11:50:56;11.93;;;4.45;;
25922;SDS011;13725;51.170;4.442;2024-02-21T11:53:22;13.65;;;4.47;;
25922;SDS011;13725;51.170;4.442;2024-02-21T11:55:49;11.85;;;4.57;;
25922;SDS011;13725;51.170;4.442;2024-02-21T11:58:15;12.73;;;5.07;;
25922;SDS011;13725;51.170;4.442;2024-02-21T12:00:41;16.00;;;5.15;;
25922;SDS011;13725;51.170;4.442;2024-02-21T12:03:07;13.25;;;4.70;;
25922;SDS011;13725;51.170;4.442;2024-02-21T12:05:33;12.07;;;5.45;;
25922;SDS011;13725;51.170;4.442;2024-02-21T12:08:00;12.88;;;6.32;;
25922;SDS011;13725;51.170;4.442;2024-02-21T12:10:26;12.00;;;6.32;;
25922;SDS011;13725;51.170;4.442;2024-02-21T12:13:05;16.38;;;7.20;;
25922;SDS011;13725;51.170;4.442;2024-02-21T12:15:32;13.32;;;6.20;;
25922;SDS011;13725;51.170;4.442;2024-02-21T12:17:57;24.17;;;7.90;;
25922;SDS011;13725;51.170;4.442;2024-02-21T12:20:25;16.98;;;6.13;;
25922;SDS011;13725;51.170;4.442;2024-02-21T12:22:51;15.88;;;7.22;;
25922;SDS011;13725;51.170;4.442;2024-02-21T12:25:18;17.65;;;6.85;;
25922;SDS011;13725;51.170;4.442;2024-02-21T12:27:45;15.30;;;6.90;;
25922;SDS011;13725;51.170;4.442;2024-02-21T12:30:11;18.15;;;5.82;;
25922;SDS011;13725;51.170;4.442;2024-02-21T12:32:37;14.90;;;6.13;;
25922;SDS011;13725;51.170;4.442;2024-02-21T12:35:03;16.80;;;5.70;;
25922;SDS011;13725;51.170;4.442;2024-02-21T12:37:29;11.02;;;4.88;;
25922;SDS011;13725;51.170;4.442;2024-02-21T12:39:54;14.25;;;5.05;;
25922;SDS011;13725;51.170;4.442;2024-02-21T12:42:20;12.70;;;4.35;;
25922;SDS011;13725;51.170;4.442;2024-02-21T12:44:46;9.27;;;3.97;;
25922;SDS011;13725;51.170;4.442;2024-02-21T12:47:12;12.77;;;4.47;;
25922;SDS011;13725;51.170;4.442;2024-02-21T12:49:37;10.68;;;4.22;;
25922;SDS011;13725;51.170;4.442;2024-02-21T12:52:03;10.20;;;3.58;;
25922;SDS011;13725;51.170;4.442;2024-02-21T12:54:29;14.57;;;5.28;;
25922;SDS011;13725;51.170;4.442;2024-02-21T12:56:56;14.60;;;4.00;;
25922;SDS011;13725;51.170;4.442;2024-02-21T12:59:21;9.23;;;3.58;;
25922;SDS011;13725;51.170;4.442;2024-02-21T13:01:48;10.05;;;3.55;;
25922;SDS011;13725;51.170;4.442;2024-02-21T13:04:14;15.13;;;3.95;;
25922;SDS011;13725;51.170;4.442;2024-02-21T13:06:39;18.17;;;5.25;;
25922;SDS011;13725;51.170;4.442;2024-02-21T13:09:05;7.68;;;3.58;;
25922;SDS011;13725;51.170;4.442;2024-02-21T13:11:35;15.50;;;4.03;;
25922;SDS011;13725;51.170;4.442;2024-02-21T13:14:02;10.02;;;3.55;;
25922;SDS011;13725;51.170;4.442;2024-02-21T13:16:28;6.40;;;3.13;;
25922;SDS011;13725;51.170;4.442;2024-02-21T13:18:54;10.10;;;3.72;;
25922;SDS011;13725;51.170;4.442;2024-02-21T13:21:20;11.70;;;4.00;;
25922;SDS011;13725;51.170;4.442;2024-02-21T13:23:45;7.35;;;3.33;;
25922;SDS011;13725;51.170;4.442;2024-02-21T13:26:11;10.85;;;3.70;;
25922;SDS011;13725;51.170;4.442;2024-02-21T13:28:37;12.43;;;3.65;;
25922;SDS011;13725;51.170;4.442;2024-02-21T13:31:03;11.73;;;4.13;;
25922;SDS011;13725;51.170;4.442;2024-02-21T13:33:29;9.30;;;3.65;;
25922;SDS011;13725;51.170;4.442;2024-02-21T13:35:55;13.65;;;3.95;;
25922;SDS011;13725;51.170;4.442;2024-02-21T13:38:20;8.20;;;3.55;;
25922;SDS011;13725;51.170;4.442;2024-02-21T13:40:46;18.55;;;4.65;;
25922;SDS011;13725;51.170;4.442;2024-02-21T13:43:12;13.90;;;4.63;;
25922;SDS011;13725;51.170;4.442;2024-02-21T13:45:38;12.63;;;4.70;;
25922;SDS011;13725;51.170;4.442;2024-02-21T13:48:06;16.17;;;4.60;;
25922;SDS011;13725;51.170;4.442;2024-02-21T13:50:35;10.32;;;4.85;;
25922;SDS011;13725;51.170;4.442;2024-02-21T13:53:08;12.90;;;5.00;;
25922;SDS011;13725;51.170;4.442;2024-02-21T13:55:35;10.13;;;5.57;;
25922;SDS011;13725;51.170;4.442;2024-02-21T13:58:01;14.07;;;5.57;;
25922;SDS011;13725;51.170;4.442;2024-02-21T14:00:28;13.48;;;5.40;;
25922;SDS011;13725;51.170;4.442;2024-02-21T14:02:54;18.73;;;7.30;;
25922;SDS011;13725;51.170;4.442;2024-02-21T14:05:19;10.00;;;5.20;;
25922;SDS011;13725;51.170;4.442;2024-02-21T14:07:45;12.40;;;6.18;;
25922;SDS011;13725;51.170;4.442;2024-02-21T14:10:11;14.45;;;5.57;;
25922;SDS011;13725;51.170;4.442;2024-02-21T14:12:37;15.93;;;6.45;;
25922;SDS011;13725;51.170;4.442;2024-02-21T14:15:03;12.25;;;5.50;;
25922;SDS011;13725;51.170;4.442;2024-02-21T14:17:30;15.23;;;6.07;;
25922;SDS011;13725;51.170;4.442;2024-02-21T14:19:56;14.32;;;6.10;;
25922;SDS011;13725;51.170;4.442;2024-02-21T14:22:21;11.25;;;5.60;;
25922;SDS011;13725;51.170;4.442;2024-02-21T14:24:47;12.20;;;5.75;;
25922;SDS011;13725;51.170;4.442;2024-02-21T14:27:13;16.23;;;6.22;;
25922;SDS011;13725;51.170;4.442;2024-02-21T14:29:38;17.23;;;5.70;;
25922;SDS011;13725;51.170;4.442;2024-02-21T14:32:04;18.02;;;6.18;;
25922;SDS011;13725;51.170;4.442;2024-02-21T14:34:31;18.35;;;6.35;;
25922;SDS011;13725;51.170;4.442;2024-02-21T14:36:56;11.10;;;6.05;;
25922;SDS011;13725;51.170;4.442;2024-02-21T14:39:22;13.98;;;6.38;;
25922;SDS011;13725;51.170;4.442;2024-02-21T14:41:48;16.83;;;6.18;;